Airfield :
LOGIN :

Register | Disclaimer

   EN    FR    IT 

 










Legend :    VFR   Marginal VFR   IFR   Intensive IFR   Very Intensive IFR
Visi :
Ceiling :
>= 8 km
>= 3000ft
5 to 8 km
1000 to 3000 ft
1500m to 5 km
500 to 1000 ft
800 to 1500m
200 to 500 ft
< 800m
< 200 ft
Symbols :   Thunderstorms  Fog  Heavy snow  Heavy precipitations  Wind > 20 kt
SIGMETs :     Misc.  Thunderstorms  Icing  Turbulence  Mountain Waves  Volcanic Ashes






- Airport Elevation : 20 ft


EBFN - Koksijde

CURRENT METAR :
  • 061541Z 22017KT 3000 BKN009 BKN014 10/09 Q1004 YLO GRN TEMPO YLO

EXPIRED METARs :
  • 061455Z 22018KT 9000 -DZ SCT008 BKN013 10/09 Q1004 GRN GRN TEMPO YLO
  • 061425Z 21020KT 6000 -DZ BKN009 BKN013 10/09 Q1005 GRN GRN TEMPO YLO
  • 061355Z 22020KT 9000 -DZ SCT009 BKN013 10/09 Q1005 GRN GRN TEMPO YLO
  • 061325Z 22021KT 8000 -DZ SCT009 BKN013 10/09 Q1006 GRN GRN TEMPO YLO
  • 061255Z 22020KT 8000 -DZ SCT009 BKN013 09/08 Q1006 GRN GRN TEMPO YLO

TAF TAF EBFN
Valid from the 06 at 13:00 until the 06 at 22:00 UTC


061241Z 0613/0622 21018G28KT 9999 FEW011 BKN018
TEMPO 0613/0616 22022G35KT 6000 -RA SCT009 BKN014
TEMPO 0613/0616 3000 RADZ SCT006 BKN012
TEMPO 0616/0622 4000 SHRA SCT020TCU
PROB40
TEMPO 0616/0622 1500 -TSRA SCT010 SCT016CB



MET'MAP, your aeronautical weather chart ! - Copyright ORBIFLY December 2007 - Disclaimer

ORBIFLY MET'MAP TEAM :

Programming & Development : Alexandra Zaïnal
Concept & original design : Baudouin d'Aumeries
Assistance for programming : Marc-Olivier Méhu
Technical & hardware support : Manuel Goepfert

Contact : metmap@orbifly.com




SOURCES & CREDITS :

   NOAA